Terminal Aerodrome Forecast
Issued by NWS Charleston, WV

Home | Current Version | Previous Version | Text Only | Print | Product List | Glossary On
Versions: 1 2 3 4 5 6 7 8 9 10 11 12 13 14 15 16 17 18 19 20 21 22 23 24 25 26 27 28
000
FTUS41 KRLX 220500
TAFCRW
TAF
KCRW 220540Z 2206/2306 30005KT P6SM SCT025 OVC035
     FM220800 31006KT P6SM OVC015
     FM221700 32007KT P6SM OVC025
     FM222200 32005KT P6SM BKN035
     FM230400 VRB03KT P6SM BKN050=

USA.gov is the U.S. government's official web portal to all federal, state and local government web resources and services.